Time;durP1;ratioP1;P1;durP2;ratioP2;P2;SDS_P1;SDS_P2;PMS_P1;PMS_P2;Temp;Humidity;BMP_temperature;BMP_pressure;BME280_temperature;BME280_humidity;BME280_pressure;Samples;Min_cycle;Max_cycle;Signal;HPM_P1;HPM_P2
2022/09/06 00:01:30;;;;;;;;;9.00;7.00;;;;;;;;4987905;28;45374;-73
2022/09/06 00:03:56;;;;;;;;;8.00;8.00;;;;;;;;4983665;27;45477;-73
2022/09/06 00:06:21;;;;;;;;;8.33;7.00;;;;;;;;4981055;28;45204;-73
2022/09/06 00:08:47;;;;;;;;;9.67;8.67;;;;;;;;4992861;27;45636;-73
2022/09/06 00:11:13;;;;;;;;;6.00;6.00;;;;;;;;4984156;27;45274;-73
2022/09/06 00:13:38;;;;;;;;;7.67;7.67;;;;;;;;4989688;28;45277;-73
2022/09/06 00:16:07;;;;;;;;;6.00;6.00;;;;;;;;4983329;28;45935;-73
2022/09/06 00:18:33;;;;;;;;;6.33;5.33;;;;;;;;4992443;27;45806;-73
2022/09/06 00:20:58;;;;;;;;;6.00;6.00;;;;;;;;4985139;27;45325;-73
2022/09/06 00:23:23;;;;;;;;;5.33;5.33;;;;;;;;4993791;28;45421;-73
2022/09/06 00:25:48;;;;;;;;;6.00;5.00;;;;;;;;4988266;27;45546;-73
2022/09/06 00:28:14;;;;;;;;;6.33;5.00;;;;;;;;4981171;27;45489;-73
2022/09/06 00:30:40;;;;;;;;;8.67;7.67;;;;;;;;4983616;28;45402;-73
2022/09/06 00:33:05;;;;;;;;;4.67;4.67;;;;;;;;4983951;27;45489;-73
2022/09/06 00:35:30;;;;;;;;;6.33;5.00;;;;;;;;5010740;27;45228;-73
2022/09/06 00:37:59;;;;;;;;;8.00;6.67;;;;;;;;4988018;27;45441;-73
2022/09/06 00:40:25;;;;;;;;;9.00;6.67;;;;;;;;4981395;27;45470;-73
2022/09/06 00:42:50;;;;;;;;;7.00;7.00;;;;;;;;4989773;28;45501;-73
2022/09/06 00:45:16;;;;;;;;;8.33;7.33;;;;;;;;4983739;28;45485;-73
2022/09/06 00:47:42;;;;;;;;;9.00;8.33;;;;;;;;4991304;27;45295;-73
2022/09/06 00:50:08;;;;;;;;;11.00;8.33;;;;;;;;4989650;27;45422;-73
2022/09/06 00:52:34;;;;;;;;;6.33;6.33;;;;;;;;4991030;27;45307;-73
2022/09/06 00:54:59;;;;;;;;;9.33;8.33;;;;;;;;4996065;27;45335;-73
2022/09/06 00:57:26;;;;;;;;;6.67;6.67;;;;;;;;4993575;27;45393;-73
2022/09/06 00:59:53;;;;;;;;;9.67;7.00;;;;;;;;4984457;27;45278;-73
2022/09/06 01:02:18;;;;;;;;;7.33;7.33;;;;;;;;4992537;27;45311;-73
2022/09/06 01:04:46;;;;;;;;;7.33;7.00;;;;;;;;4979999;28;46145;-73
2022/09/06 01:07:15;;;;;;;;;8.00;6.67;;;;;;;;4984481;27;45353;-73
2022/09/06 01:09:46;;;;;;;;;6.33;6.33;;;;;;;;4979076;27;45230;-73
2022/09/06 01:12:20;;;;;;;;;6.00;6.00;;;;;;;;4986321;28;45535;-73
2022/09/06 01:14:45;;;;;;;;;6.67;6.33;;;;;;;;4981107;27;46336;-73
2022/09/06 01:17:14;;;;;;;;;6.67;6.67;;;;;;;;4993872;27;45316;-73
2022/09/06 01:19:48;;;;;;;;;7.33;5.67;;;;;;;;4984981;27;45359;-73
2022/09/06 01:22:22;;;;;;;;;8.00;7.00;;;;;;;;4989144;27;45441;-73
2022/09/06 01:24:53;;;;;;;;;6.00;6.00;;;;;;;;4989111;28;45696;-73
2022/09/06 01:27:18;;;;;;;;;7.67;5.00;;;;;;;;4990516;27;45287;-73
2022/09/06 01:29:47;;;;;;;;;8.00;7.00;;;;;;;;4987236;28;45319;-73
2022/09/06 01:32:22;;;;;;;;;6.00;5.00;;;;;;;;4992770;27;45345;-73
2022/09/06 01:34:51;;;;;;;;;5.33;5.00;;;;;;;;5006795;27;46965;-73
2022/09/06 01:37:19;;;;;;;;;7.00;7.00;;;;;;;;4983075;28;45319;-73
2022/09/06 01:39:44;;;;;;;;;8.67;7.33;;;;;;;;4986894;27;45377;-73
2022/09/06 01:42:12;;;;;;;;;8.33;8.00;;;;;;;;4988821;28;45523;-73
2022/09/06 01:44:39;;;;;;;;;8.67;7.33;;;;;;;;4988269;28;45430;-74
2022/09/06 01:47:16;;;;;;;;;6.33;6.33;;;;;;;;4990896;28;45430;-73
2022/09/06 01:50:00;;;;;;;;;9.67;8.00;;;;;;;;4980702;28;45454;-73
2022/09/06 01:52:25;;;;;;;;;8.00;6.67;;;;;;;;4983049;28;46005;-73
2022/09/06 01:55:02;;;;;;;;;7.67;7.67;;;;;;;;4986886;27;46014;-73
2022/09/06 01:57:36;;;;;;;;;7.33;7.33;;;;;;;;4993522;27;45274;-73
2022/09/06 02:00:10;;;;;;;;;7.00;7.00;;;;;;;;4995307;27;45374;-73
2022/09/06 02:02:54;;;;;;;;;7.00;7.00;;;;;;;;4989415;27;45413;-73
2022/09/06 02:05:27;;;;;;;;;7.00;6.67;;;;;;;;4981017;28;45359;-73
2022/09/06 02:07:55;;;;;;;;;9.00;7.33;;;;;;;;4988124;28;45334;-73
2022/09/06 02:10:23;;;;;;;;;8.00;7.00;;;;;;;;4986768;28;45289;-73
2022/09/06 02:12:50;;;;;;;;;10.00;8.00;;;;;;;;4988526;28;45466;-73
2022/09/06 02:15:20;;;;;;;;;10.00;8.33;;;;;;;;4984255;28;45457;-73
2022/09/06 02:17:49;;;;;;;;;10.00;8.00;;;;;;;;4978916;28;45146;-73
2022/09/06 02:20:23;;;;;;;;;11.00;9.00;;;;;;;;4984913;28;45372;-73
2022/09/06 02:22:50;;;;;;;;;9.67;9.00;;;;;;;;4980948;27;45347;-73
2022/09/06 02:25:19;;;;;;;;;8.67;8.67;;;;;;;;4985482;28;46545;-73
2022/09/06 02:27:44;;;;;;;;;7.33;7.33;;;;;;;;4990570;28;45257;-73
2022/09/06 02:30:10;;;;;;;;;7.33;7.33;;;;;;;;4987731;28;45292;-73
2022/09/06 02:32:38;;;;;;;;;7.33;7.33;;;;;;;;4985259;28;45391;-73
2022/09/06 02:35:13;;;;;;;;;8.33;7.00;;;;;;;;5016773;27;45909;-73
2022/09/06 02:37:38;;;;;;;;;8.00;8.00;;;;;;;;4996125;27;45749;-73
2022/09/06 02:40:04;;;;;;;;;10.00;9.00;;;;;;;;4989311;28;45357;-73
2022/09/06 02:42:29;;;;;;;;;12.67;10.00;;;;;;;;4984477;28;46345;-73
2022/09/06 02:44:55;;;;;;;;;7.67;7.67;;;;;;;;4981854;27;45445;-73
2022/09/06 02:47:20;;;;;;;;;8.67;8.67;;;;;;;;4988969;28;45398;-73
2022/09/06 02:49:45;;;;;;;;;10.00;7.67;;;;;;;;4988129;27;45408;-73
2022/09/06 02:52:10;;;;;;;;;9.00;7.67;;;;;;;;4991700;28;45260;-73
2022/09/06 02:54:36;;;;;;;;;10.67;9.67;;;;;;;;4987284;28;46150;-73
2022/09/06 02:57:01;;;;;;;;;10.33;9.67;;;;;;;;4979342;28;45295;-73
2022/09/06 02:59:26;;;;;;;;;8.00;8.00;;;;;;;;4980233;28;45342;-73
2022/09/06 03:01:52;;;;;;;;;9.00;8.67;;;;;;;;4977615;28;45497;-73
2022/09/06 03:04:17;;;;;;;;;10.33;9.00;;;;;;;;4983249;28;47262;-73
2022/09/06 03:06:42;;;;;;;;;11.00;9.67;;;;;;;;4978833;28;45329;-73
2022/09/06 03:09:09;;;;;;;;;9.67;7.67;;;;;;;;4982774;28;45321;-73
2022/09/06 03:11:34;;;;;;;;;9.33;9.00;;;;;;;;4980185;27;45462;-73
2022/09/06 03:13:59;;;;;;;;;11.00;11.00;;;;;;;;4986200;28;46298;-73
2022/09/06 03:16:24;;;;;;;;;8.33;8.33;;;;;;;;4987367;27;45248;-73
2022/09/06 03:18:50;;;;;;;;;7.33;7.33;;;;;;;;4991999;28;45287;-73
2022/09/06 03:21:15;;;;;;;;;10.67;9.67;;;;;;;;4985631;28;45412;-73
2022/09/06 03:23:40;;;;;;;;;9.00;7.67;;;;;;;;4991320;28;46483;-73
2022/09/06 03:26:06;;;;;;;;;9.00;7.67;;;;;;;;4982887;28;45366;-73
2022/09/06 03:28:31;;;;;;;;;10.00;8.33;;;;;;;;4987021;28;45537;-73
2022/09/06 03:30:57;;;;;;;;;9.00;9.00;;;;;;;;4986820;28;45639;-73
2022/09/06 03:33:22;;;;;;;;;9.67;9.33;;;;;;;;4993239;27;46494;-73
2022/09/06 03:35:49;;;;;;;;;8.00;8.00;;;;;;;;4985288;27;45166;-73
2022/09/06 03:38:14;;;;;;;;;10.00;8.00;;;;;;;;4991201;28;45272;-73
2022/09/06 03:40:39;;;;;;;;;10.00;10.00;;;;;;;;4977997;28;45464;-73
2022/09/06 03:43:04;;;;;;;;;6.33;5.67;;;;;;;;4993911;28;46399;-73
2022/09/06 03:45:30;;;;;;;;;10.00;10.00;;;;;;;;4980065;28;45281;-73
2022/09/06 03:47:55;;;;;;;;;10.00;8.33;;;;;;;;4989905;27;45274;-73
2022/09/06 03:50:20;;;;;;;;;7.33;6.00;;;;;;;;4979681;28;45469;-73
2022/09/06 03:52:45;;;;;;;;;11.00;8.00;;;;;;;;4980603;28;45272;-73
2022/09/06 03:55:11;;;;;;;;;10.00;10.00;;;;;;;;4981208;28;45379;-73
2022/09/06 03:57:36;;;;;;;;;12.00;9.67;;;;;;;;4984336;28;45359;-73
2022/09/06 04:00:01;;;;;;;;;12.33;10.33;;;;;;;;4977900;28;45344;-73
2022/09/06 04:02:26;;;;;;;;;10.67;10.67;;;;;;;;4980918;28;45408;-73
2022/09/06 04:04:54;;;;;;;;;9.67;9.67;;;;;;;;4979382;28;45470;-72
2022/09/06 04:07:19;;;;;;;;;10.33;10.33;;;;;;;;4984875;28;45443;-73
2022/09/06 04:09:44;;;;;;;;;13.33;9.00;;;;;;;;4983618;27;45446;-73
2022/09/06 04:12:10;;;;;;;;;17.00;13.67;;;;;;;;4984876;28;45347;-73
2022/09/06 04:14:35;;;;;;;;;10.00;10.00;;;;;;;;4987641;27;47936;-73
2022/09/06 04:17:00;;;;;;;;;12.00;12.00;;;;;;;;4986018;28;45554;-73
2022/09/06 04:19:25;;;;;;;;;11.00;11.00;;;;;;;;4988936;27;46037;-73
2022/09/06 04:21:50;;;;;;;;;14.67;12.00;;;;;;;;4997899;27;46298;-73
2022/09/06 04:24:16;;;;;;;;;12.67;12.67;;;;;;;;4992179;27;45449;-74
2022/09/06 04:26:41;;;;;;;;;13.00;11.33;;;;;;;;4984737;27;45213;-74
2022/09/06 04:29:06;;;;;;;;;13.67;12.00;;;;;;;;4982591;28;45146;-75
2022/09/06 04:31:31;;;;;;;;;11.67;11.00;;;;;;;;4989857;28;45243;-75
2022/09/06 04:33:56;;;;;;;;;11.33;10.33;;;;;;;;4987817;27;45232;-74
2022/09/06 04:36:22;;;;;;;;;13.33;12.00;;;;;;;;4992372;27;45411;-73
2022/09/06 04:38:47;;;;;;;;;11.33;10.00;;;;;;;;4987703;28;45201;-74
2022/09/06 04:41:14;;;;;;;;;10.67;10.67;;;;;;;;4984092;27;45333;-74
2022/09/06 04:43:39;;;;;;;;;13.00;10.67;;;;;;;;4991860;27;45278;-74
2022/09/06 04:46:07;;;;;;;;;9.00;7.67;;;;;;;;4985622;28;45146;-74
2022/09/06 04:48:33;;;;;;;;;11.00;11.00;;;;;;;;4994297;27;45587;-74
2022/09/06 04:50:58;;;;;;;;;12.33;10.33;;;;;;;;4986130;27;45343;-74
2022/09/06 04:53:23;;;;;;;;;11.00;10.00;;;;;;;;4987002;27;45297;-74
2022/09/06 04:55:48;;;;;;;;;14.33;10.33;;;;;;;;4981565;27;45324;-74
2022/09/06 04:58:14;;;;;;;;;12.00;10.00;;;;;;;;4978680;28;45674;-74
2022/09/06 05:00:41;;;;;;;;;9.67;9.67;;;;;;;;4989829;28;45571;-73
2022/09/06 05:03:06;;;;;;;;;9.67;9.67;;;;;;;;4981772;27;46439;-74
2022/09/06 05:05:31;;;;;;;;;9.00;9.00;;;;;;;;4982769;27;45403;-74
2022/09/06 05:07:56;;;;;;;;;11.67;9.33;;;;;;;;4987341;27;45279;-74
2022/09/06 05:10:22;;;;;;;;;12.00;10.33;;;;;;;;4985171;27;45441;-74
2022/09/06 05:12:48;;;;;;;;;9.33;9.33;;;;;;;;4987380;27;45311;-73
2022/09/06 05:15:13;;;;;;;;;8.67;8.33;;;;;;;;4985665;27;45442;-73
2022/09/06 05:17:39;;;;;;;;;10.00;10.00;;;;;;;;4996939;28;45426;-73
2022/09/06 05:20:04;;;;;;;;;14.00;11.00;;;;;;;;4988179;28;46188;-73
2022/09/06 05:22:29;;;;;;;;;9.67;9.67;;;;;;;;4987838;27;45331;-73
2022/09/06 05:24:55;;;;;;;;;9.00;9.00;;;;;;;;4988972;28;45398;-73
2022/09/06 05:27:20;;;;;;;;;11.00;10.00;;;;;;;;4984519;27;45224;-73
2022/09/06 05:29:45;;;;;;;;;12.67;10.00;;;;;;;;4985486;28;45294;-73
2022/09/06 05:32:10;;;;;;;;;8.33;8.33;;;;;;;;4987954;27;45326;-73
2022/09/06 05:34:36;;;;;;;;;11.67;9.33;;;;;;;;4992781;27;45604;-73
2022/09/06 05:37:01;;;;;;;;;10.33;9.33;;;;;;;;4991632;27;45430;-73
2022/09/06 05:39:26;;;;;;;;;12.67;9.67;;;;;;;;4988663;28;46467;-73
2022/09/06 05:41:51;;;;;;;;;9.67;9.67;;;;;;;;4986818;28;45431;-73
2022/09/06 05:44:16;;;;;;;;;8.67;8.33;;;;;;;;4989409;28;45531;-73
2022/09/06 05:46:44;;;;;;;;;8.00;7.00;;;;;;;;4986139;28;45260;-73
2022/09/06 05:49:09;;;;;;;;;8.67;8.00;;;;;;;;4991264;27;45360;-73
2022/09/06 05:51:34;;;;;;;;;11.00;9.33;;;;;;;;4989297;27;45449;-73
2022/09/06 05:54:00;;;;;;;;;11.67;7.33;;;;;;;;4992788;27;45405;-73
2022/09/06 05:56:25;;;;;;;;;9.33;8.33;;;;;;;;4990350;27;45559;-73
2022/09/06 05:58:50;;;;;;;;;8.00;5.33;;;;;;;;4984949;27;45479;-73
2022/09/06 06:01:20;;;;;;;;;12.00;10.00;;;;;;;;4977491;27;45322;-73
2022/09/06 06:03:52;;;;;;;;;9.33;9.33;;;;;;;;4979704;27;45618;-73
2022/09/06 06:06:18;;;;;;;;;7.67;7.67;;;;;;;;4978560;28;45310;-73
2022/09/06 06:08:43;;;;;;;;;9.67;8.33;;;;;;;;4988743;27;47159;-73
2022/09/06 06:11:08;;;;;;;;;16.33;11.67;;;;;;;;4979774;28;45153;-73
2022/09/06 06:13:38;;;;;;;;;13.67;10.00;;;;;;;;4989578;28;45195;-73
2022/09/06 06:16:03;;;;;;;;;14.67;13.33;;;;;;;;4993276;28;46307;-73
2022/09/06 06:18:28;;;;;;;;;17.33;12.67;;;;;;;;4993642;28;45450;-73
2022/09/06 06:21:05;;;;;;;;;14.67;12.67;;;;;;;;4991543;28;45504;-72
2022/09/06 06:23:30;;;;;;;;;13.33;12.33;;;;;;;;4993061;27;45523;-73
2022/09/06 06:25:56;;;;;;;;;14.33;12.33;;;;;;;;4983744;27;45276;-73
2022/09/06 06:28:21;;;;;;;;;10.00;10.00;;;;;;;;4990131;28;47479;-73
2022/09/06 06:30:46;;;;;;;;;13.00;12.67;;;;;;;;4986812;28;45409;-73
2022/09/06 06:33:11;;;;;;;;;10.00;10.00;;;;;;;;4994385;27;45195;-73
2022/09/06 06:35:37;;;;;;;;;12.33;11.00;;;;;;;;4986161;27;45148;-73
2022/09/06 06:38:02;;;;;;;;;10.67;9.67;;;;;;;;4981410;28;45267;-73
2022/09/06 06:40:27;;;;;;;;;14.67;10.33;;;;;;;;4980052;28;45378;-73
2022/09/06 06:42:54;;;;;;;;;6.33;6.33;;;;;;;;4984842;27;45406;-73
2022/09/06 06:45:20;;;;;;;;;10.33;9.00;;;;;;;;4981073;28;45311;-73
2022/09/06 06:47:48;;;;;;;;;13.67;10.67;;;;;;;;4986943;28;45350;-73
2022/09/06 06:50:13;;;;;;;;;9.00;9.00;;;;;;;;4982707;27;45319;-73
2022/09/06 06:52:38;;;;;;;;;8.00;7.67;;;;;;;;4989808;28;45421;-74
2022/09/06 06:55:04;;;;;;;;;6.33;6.00;;;;;;;;4981572;27;45402;-73
2022/09/06 06:57:30;;;;;;;;;9.00;9.00;;;;;;;;4994027;27;46766;-74
2022/09/06 06:59:55;;;;;;;;;8.00;8.00;;;;;;;;4992390;27;45289;-73
2022/09/06 07:02:20;;;;;;;;;8.00;8.00;;;;;;;;4988494;27;45273;-73
2022/09/06 07:04:46;;;;;;;;;12.33;8.00;;;;;;;;4980458;28;45648;-74
2022/09/06 07:07:11;;;;;;;;;9.00;9.00;;;;;;;;4980545;28;46117;-75
2022/09/06 07:09:36;;;;;;;;;9.33;8.33;;;;;;;;4981832;28;45311;-73
2022/09/06 07:12:02;;;;;;;;;7.67;7.67;;;;;;;;4984808;28;45165;-74
2022/09/06 07:14:27;;;;;;;;;8.67;7.67;;;;;;;;4987333;28;45408;-74
2022/09/06 07:16:57;;;;;;;;;11.00;10.00;;;;;;;;4984726;28;45364;-74
2022/09/06 07:19:22;;;;;;;;;10.00;8.67;;;;;;;;4980388;27;45460;-74
2022/09/06 07:21:47;;;;;;;;;10.67;9.33;;;;;;;;4986536;27;45434;-74
2022/09/06 07:24:13;;;;;;;;;9.00;8.00;;;;;;;;4982435;28;45430;-75
2022/09/06 07:26:39;;;;;;;;;8.00;7.67;;;;;;;;4991257;27;46096;-74
2022/09/06 07:29:04;;;;;;;;;7.00;7.00;;;;;;;;4989783;28;45398;-74
2022/09/06 07:31:31;;;;;;;;;7.00;6.00;;;;;;;;4984936;28;45416;-74
2022/09/06 07:33:56;;;;;;;;;7.00;7.00;;;;;;;;4996553;27;45236;-74
2022/09/06 07:36:21;;;;;;;;;7.00;7.00;;;;;;;;4995014;27;45316;-74
2022/09/06 07:38:48;;;;;;;;;7.00;7.00;;;;;;;;4988754;28;45352;-75
2022/09/06 07:41:13;;;;;;;;;9.00;7.33;;;;;;;;4984881;27;45269;-75
2022/09/06 07:43:39;;;;;;;;;6.00;5.00;;;;;;;;4996093;27;45404;-74
2022/09/06 07:46:04;;;;;;;;;7.33;7.33;;;;;;;;4992615;27;45403;-75
2022/09/06 07:48:30;;;;;;;;;6.67;6.00;;;;;;;;4988726;28;45224;-74
2022/09/06 07:51:02;;;;;;;;;5.00;5.00;;;;;;;;4982547;28;45269;-75
2022/09/06 07:53:27;;;;;;;;;7.67;6.00;;;;;;;;4981818;27;45305;-74
2022/09/06 07:55:52;;;;;;;;;5.00;5.00;;;;;;;;4980519;27;45421;-75
2022/09/06 07:58:17;;;;;;;;;5.00;5.00;;;;;;;;4983485;28;45359;-74
2022/09/06 08:00:42;;;;;;;;;5.00;4.67;;;;;;;;4983034;27;45408;-75
2022/09/06 08:03:08;;;;;;;;;6.67;5.67;;;;;;;;4985512;28;45225;-75
2022/09/06 08:05:33;;;;;;;;;5.33;5.33;;;;;;;;4981362;28;45268;-75
2022/09/06 08:07:58;;;;;;;;;5.00;5.00;;;;;;;;4985958;27;45304;-75
2022/09/06 08:10:23;;;;;;;;;6.00;6.00;;;;;;;;4989883;28;45268;-75
2022/09/06 08:12:51;;;;;;;;;9.33;8.00;;;;;;;;4989124;28;45804;-75
2022/09/06 08:15:16;;;;;;;;;4.67;4.67;;;;;;;;4988113;28;46094;-74
2022/09/06 08:17:42;;;;;;;;;5.00;5.00;;;;;;;;4989743;28;45420;-72
2022/09/06 08:20:07;;;;;;;;;6.33;5.33;;;;;;;;4991102;27;46525;-72
2022/09/06 08:22:32;;;;;;;;;4.67;4.67;;;;;;;;4987573;27;45816;-73
2022/09/06 08:24:58;;;;;;;;;5.00;5.00;;;;;;;;4984541;27;46715;-72
2022/09/06 08:27:24;;;;;;;;;7.00;6.00;;;;;;;;4987943;27;46580;-73
2022/09/06 08:29:49;;;;;;;;;3.67;3.67;;;;;;;;4991252;28;45505;-73
2022/09/06 08:32:14;;;;;;;;;6.33;5.00;;;;;;;;4993164;27;45323;-72
2022/09/06 08:34:39;;;;;;;;;5.33;5.33;;;;;;;;4994935;27;45371;-73
2022/09/06 08:37:04;;;;;;;;;4.00;4.00;;;;;;;;4984686;28;45362;-74
2022/09/06 08:39:30;;;;;;;;;5.00;5.00;;;;;;;;4988738;27;45434;-73
2022/09/06 08:41:59;;;;;;;;;4.00;4.00;;;;;;;;4996026;27;45338;-72
2022/09/06 08:44:33;;;;;;;;;4.67;4.67;;;;;;;;4992957;28;45317;-72
2022/09/06 08:47:09;;;;;;;;;4.25;4.00;;;;;;;;4994109;28;45510;-72
2022/09/06 08:49:35;;;;;;;;;3.25;3.25;;;;;;;;4992219;28;45400;-72
2022/09/06 08:52:09;;;;;;;;;6.00;5.67;;;;;;;;4995411;28;45228;-72
2022/09/06 08:54:47;;;;;;;;;5.50;5.50;;;;;;;;4986719;28;45637;-72
2022/09/06 08:57:15;;;;;;;;;5.50;5.50;;;;;;;;4993202;27;45694;-72
2022/09/06 08:59:41;;;;;;;;;4.25;4.25;;;;;;;;4991077;27;46582;-72
2022/09/06 09:02:18;;;;;;;;;7.00;6.75;;;;;;;;4984868;27;45358;-73
2022/09/06 09:04:53;;;;;;;;;6.00;4.25;;;;;;;;4981616;27;45411;-73
2022/09/06 09:07:36;;;;;;;;;4.25;4.25;;;;;;;;4981455;27;45394;-73
2022/09/06 09:10:03;;;;;;;;;3.75;3.75;;;;;;;;4979290;28;45323;-71
2022/09/06 09:12:31;;;;;;;;;5.00;3.75;;;;;;;;4987684;27;45990;-71
2022/09/06 09:15:00;;;;;;;;;7.50;5.00;;;;;;;;4986504;27;45474;-71
2022/09/06 09:17:28;;;;;;;;;4.25;4.25;;;;;;;;4986396;27;45473;-71
2022/09/06 09:19:53;;;;;;;;;3.75;3.75;;;;;;;;4984031;28;45369;-71
2022/09/06 09:22:19;;;;;;;;;3.25;3.25;;;;;;;;4991082;27;45874;-72
2022/09/06 09:24:46;;;;;;;;;6.50;5.00;;;;;;;;4984452;27;45357;-71
2022/09/06 09:27:12;;;;;;;;;8.80;5.60;;;;;;;;4990904;28;45435;-71
2022/09/06 09:29:59;;;;;;;;;6.00;4.75;;;;;;;;4988819;27;45376;-71
2022/09/06 09:32:44;;;;;;;;;4.75;4.00;;;;;;;;4992658;28;45361;-71
2022/09/06 09:35:22;;;;;;;;;5.25;3.25;;;;;;;;4990022;27;45767;-71
2022/09/06 09:37:47;;;;;;;;;4.40;3.80;;;;;;;;4993795;28;45392;-71
2022/09/06 09:40:17;;;;;;;;;3.75;3.75;;;;;;;;4985477;27;45203;-71
2022/09/06 09:42:42;;;;;;;;;5.80;3.20;;;;;;;;4995416;27;45695;-71
2022/09/06 09:45:22;;;;;;;;;3.75;2.75;;;;;;;;4990004;28;45321;-71
2022/09/06 09:47:48;;;;;;;;;1.20;1.20;;;;;;;;4996502;27;45261;-73
2022/09/06 09:50:22;;;;;;;;;4.25;2.25;;;;;;;;4986331;27;45361;-71
2022/09/06 09:52:47;;;;;;;;;4.00;2.40;;;;;;;;4984094;27;45479;-70
2022/09/06 09:55:13;;;;;;;;;1.25;1.25;;;;;;;;4984797;28;46200;-70
2022/09/06 09:57:46;;;;;;;;;2.60;2.60;;;;;;;;4984413;28;45325;-71
2022/09/06 10:00:12;;;;;;;;;2.00;2.00;;;;;;;;4981776;27;45495;-70
2022/09/06 10:02:39;;;;;;;;;4.00;3.00;;;;;;;;4981038;27;45599;-70
2022/09/06 10:05:08;;;;;;;;;5.60;4.20;;;;;;;;4978677;28;46265;-70
2022/09/06 10:07:34;;;;;;;;;2.80;2.40;;;;;;;;4983706;27;45437;-71
2022/09/06 10:10:03;;;;;;;;;2.75;2.00;;;;;;;;4989841;27;45322;-71
2022/09/06 10:12:29;;;;;;;;;3.75;2.00;;;;;;;;4995625;27;45360;-70
2022/09/06 10:14:54;;;;;;;;;3.00;3.00;;;;;;;;4989062;27;45646;-71
2022/09/06 10:17:25;;;;;;;;;2.50;2.50;;;;;;;;4994121;28;45223;-72
2022/09/06 10:19:50;;;;;;;;;3.00;3.00;;;;;;;;4990405;27;45472;-72
2022/09/06 10:22:18;;;;;;;;;2.00;2.00;;;;;;;;4994371;28;45556;-72
2022/09/06 10:24:44;;;;;;;;;2.75;2.75;;;;;;;;4991131;28;45308;-72
2022/09/06 10:27:09;;;;;;;;;2.00;2.00;;;;;;;;4993814;28;45191;-71
2022/09/06 10:29:34;;;;;;;;;4.25;4.25;;;;;;;;4989834;27;45829;-72
2022/09/06 10:32:22;;;;;;;;;2.25;2.25;;;;;;;;4991921;28;45301;-72
2022/09/06 10:34:53;;;;;;;;;3.00;3.00;;;;;;;;4988785;27;46754;-72
2022/09/06 10:37:30;;;;;;;;;3.00;3.00;;;;;;;;4977806;27;45413;-71
2022/09/06 10:40:08;;;;;;;;;4.20;2.40;;;;;;;;4980926;28;45390;-71
2022/09/06 10:42:45;;;;;;;;;2.00;2.00;;;;;;;;4983341;28;47323;-72
2022/09/06 10:45:19;;;;;;;;;3.20;1.60;;;;;;;;4987637;27;46462;-71
2022/09/06 10:47:54;;;;;;;;;2.80;2.80;;;;;;;;4995599;27;45374;-72
2022/09/06 10:50:20;;;;;;;;;7.60;4.00;;;;;;;;4980834;27;45805;-71
2022/09/06 10:52:46;;;;;;;;;3.00;3.00;;;;;;;;4977503;28;45436;-71
2022/09/06 10:55:15;;;;;;;;;2.00;1.60;;;;;;;;4987919;27;48327;-71
2022/09/06 10:57:56;;;;;;;;;4.40;2.00;;;;;;;;4992253;28;45216;-72
2022/09/06 11:00:21;;;;;;;;;1.75;1.75;;;;;;;;4983555;28;45404;-71
2022/09/06 11:02:53;;;;;;;;;2.50;2.50;;;;;;;;4987762;27;45291;-72
2022/09/06 11:05:19;;;;;;;;;2.00;2.00;;;;;;;;4988019;27;45372;-72
2022/09/06 11:08:05;;;;;;;;;2.00;2.00;;;;;;;;4976942;28;45363;-71
2022/09/06 11:10:32;;;;;;;;;1.25;1.25;;;;;;;;4982756;28;45363;-71
2022/09/06 11:13:14;;;;;;;;;3.00;2.00;;;;;;;;4980530;28;45422;-71
2022/09/06 11:15:44;;;;;;;;;3.80;3.80;;;;;;;;4987008;28;45463;-72
2022/09/06 11:18:24;;;;;;;;;4.00;3.20;;;;;;;;4987471;28;45381;-71
2022/09/06 11:20:58;;;;;;;;;3.00;2.00;;;;;;;;4990770;27;45497;-71
2022/09/06 11:23:35;;;;;;;;;6.00;4.00;;;;;;;;4997545;27;45635;-70
2022/09/06 11:26:06;;;;;;;;;4.00;2.80;;;;;;;;4982350;27;45444;-71
2022/09/06 11:29:04;;;;;;;;;2.00;2.00;;;;;;;;4983549;27;45486;-74
2022/09/06 11:31:31;;;;;;;;;4.00;2.25;;;;;;;;4980338;28;45373;-74
2022/09/06 11:34:05;;;;;;;;;3.00;1.00;;;;;;;;4994606;27;45553;-73
2022/09/06 11:36:47;;;;;;;;;3.50;3.00;;;;;;;;4986120;27;45306;-73
2022/09/06 11:39:13;;;;;;;;;3.00;3.00;;;;;;;;4986774;27;45511;-74
2022/09/06 11:41:42;;;;;;;;;5.75;4.25;;;;;;;;4987797;28;45400;-74
2022/09/06 11:44:08;;;;;;;;;1.50;1.50;;;;;;;;4989542;27;45852;-75
2022/09/06 11:46:33;;;;;;;;;3.50;2.50;;;;;;;;4988420;27;45295;-74
2022/09/06 11:49:26;;;;;;;;;4.50;4.00;;;;;;;;4993813;28;45471;-74
2022/09/06 11:51:51;;;;;;;;;6.00;3.00;;;;;;;;4991350;27;45449;-75
2022/09/06 11:54:16;;;;;;;;;3.75;3.75;;;;;;;;4986091;27;45473;-74
2022/09/06 11:56:49;;;;;;;;;2.25;2.25;;;;;;;;4990768;27;45988;-74
2022/09/06 11:59:15;;;;;;;;;3.40;3.40;;;;;;;;4992641;27;45511;-74
2022/09/06 12:01:40;;;;;;;;;3.50;3.25;;;;;;;;4984662;27;45306;-75
2022/09/06 12:04:06;;;;;;;;;4.50;3.00;;;;;;;;4985403;27;45342;-74
2022/09/06 12:06:40;;;;;;;;;4.20;2.60;;;;;;;;4977672;28;46952;-73
2022/09/06 12:09:24;;;;;;;;;1.80;1.80;;;;;;;;4978004;28;46022;-73
2022/09/06 12:11:50;;;;;;;;;2.20;2.20;;;;;;;;4982867;28;45465;-73
2022/09/06 12:14:26;;;;;;;;;4.40;1.60;;;;;;;;4992721;27;45400;-73
2022/09/06 12:16:58;;;;;;;;;2.00;2.00;;;;;;;;4995574;28;45420;-73
2022/09/06 12:19:56;;;;;;;;;2.40;2.40;;;;;;;;4992092;28;45304;-73
2022/09/06 12:22:40;;;;;;;;;2.00;2.00;;;;;;;;4985169;28;45505;-73
2022/09/06 12:25:25;;;;;;;;;2.20;2.20;;;;;;;;4991443;28;45475;-73
2022/09/06 12:27:57;;;;;;;;;2.60;2.40;;;;;;;;4995211;28;46142;-73
2022/09/06 12:30:52;;;;;;;;;1.80;1.20;;;;;;;;4984439;27;45358;-72
2022/09/06 12:33:17;;;;;;;;;2.40;2.40;;;;;;;;4988492;27;45789;-73
2022/09/06 12:35:42;;;;;;;;;5.00;2.25;;;;;;;;4992938;27;45577;-72
2022/09/06 12:38:12;;;;;;;;;4.00;1.00;;;;;;;;4997709;28;45480;-73
2022/09/06 12:40:42;;;;;;;;;2.40;1.40;;;;;;;;4981520;27;45163;-73
2022/09/06 12:43:09;;;;;;;;;0.80;0.80;;;;;;;;4984830;27;45304;-72
2022/09/06 12:45:34;;;;;;;;;2.80;2.40;;;;;;;;4992596;27;45933;-72
2022/09/06 12:48:04;;;;;;;;;1.00;1.00;;;;;;;;4997253;27;46305;-73
2022/09/06 12:50:30;;;;;;;;;0.00;0.00;;;;;;;;4992121;27;45332;-73
2022/09/06 12:52:58;;;;;;;;;2.60;1.20;;;;;;;;4984699;28;45307;-72
2022/09/06 12:55:27;;;;;;;;;1.60;1.40;;;;;;;;4986245;28;45315;-72
2022/09/06 12:57:54;;;;;;;;;0.40;0.00;;;;;;;;4978297;28;45280;-72
2022/09/06 13:00:21;;;;;;;;;2.80;2.20;;;;;;;;4980490;27;45229;-73
2022/09/06 13:02:51;;;;;;;;;1.40;1.40;;;;;;;;4993974;27;45619;-72
2022/09/06 13:05:16;;;;;;;;;1.60;1.60;;;;;;;;4989460;27;45237;-73
2022/09/06 13:07:44;;;;;;;;;1.25;1.25;;;;;;;;4987887;27;46367;-73
2022/09/06 13:10:12;;;;;;;;;2.60;2.60;;;;;;;;4989244;28;45374;-72
2022/09/06 13:12:39;;;;;;;;;8.00;6.60;;;;;;;;4993037;27;45362;-72
2022/09/06 13:15:12;;;;;;;;;1.80;1.80;;;;;;;;4983509;28;45326;-72
2022/09/06 13:17:37;;;;;;;;;3.60;2.20;;;;;;;;4989162;28;45284;-72
2022/09/06 13:20:14;;;;;;;;;0.75;0.75;;;;;;;;4987878;27;45316;-73
2022/09/06 13:22:41;;;;;;;;;1.00;1.00;;;;;;;;4990797;28;45332;-72
2022/09/06 13:25:22;;;;;;;;;1.00;1.00;;;;;;;;4988951;27;45437;-72
2022/09/06 13:27:49;;;;;;;;;3.00;3.00;;;;;;;;4978217;28;47565;-73
2022/09/06 13:30:35;;;;;;;;;3.20;2.00;;;;;;;;4980226;27;45288;-72
2022/09/06 13:33:01;;;;;;;;;2.40;1.40;;;;;;;;4983357;27;45342;-72
2022/09/06 13:35:28;;;;;;;;;1.00;0.25;;;;;;;;4999128;27;45473;-73
2022/09/06 13:38:12;;;;;;;;;4.00;3.00;;;;;;;;4994604;28;46012;-73
2022/09/06 13:40:42;;;;;;;;;2.80;1.60;;;;;;;;4988380;27;46082;-73
2022/09/06 13:43:11;;;;;;;;;2.60;2.60;;;;;;;;4993611;27;45277;-72
2022/09/06 13:45:36;;;;;;;;;4.60;3.80;;;;;;;;4984924;28;45351;-73
2022/09/06 13:48:01;;;;;;;;;3.75;3.00;;;;;;;;4986064;27;45397;-73
2022/09/06 13:50:27;;;;;;;;;4.50;3.25;;;;;;;;4979510;28;45344;-72
2022/09/06 13:52:52;;;;;;;;;3.50;3.50;;;;;;;;4991427;27;45438;-72
2022/09/06 13:55:19;;;;;;;;;4.00;4.00;;;;;;;;4979882;28;45416;-73
2022/09/06 13:57:44;;;;;;;;;3.60;3.60;;;;;;;;4984768;28;46301;-73
2022/09/06 14:00:11;;;;;;;;;8.50;6.00;;;;;;;;4983822;28;46225;-73
2022/09/06 14:02:38;;;;;;;;;4.60;3.00;;;;;;;;4994037;28;45565;-73
2022/09/06 14:05:03;;;;;;;;;5.00;4.00;;;;;;;;4990136;28;45521;-73
2022/09/06 14:07:29;;;;;;;;;4.25;4.25;;;;;;;;4994158;28;46804;-73
2022/09/06 14:09:54;;;;;;;;;4.00;4.00;;;;;;;;4984458;27;45512;-73
2022/09/06 14:12:19;;;;;;;;;5.00;4.50;;;;;;;;4986095;28;45482;-72
2022/09/06 14:14:44;;;;;;;;;3.75;3.75;;;;;;;;4981186;28;45418;-73
2022/09/06 14:17:10;;;;;;;;;4.00;4.00;;;;;;;;4989525;28;46309;-73
2022/09/06 14:19:35;;;;;;;;;3.75;3.75;;;;;;;;4982123;27;45362;-73
2022/09/06 14:22:01;;;;;;;;;3.50;3.50;;;;;;;;4990938;27;45306;-73
2022/09/06 14:24:26;;;;;;;;;3.50;3.00;;;;;;;;4989514;27;45445;-71
2022/09/06 14:26:51;;;;;;;;;5.25;4.00;;;;;;;;4991644;27;45466;-71
2022/09/06 14:29:16;;;;;;;;;5.00;4.00;;;;;;;;4988105;28;45621;-73
2022/09/06 14:31:41;;;;;;;;;2.75;2.50;;;;;;;;4983420;27;45481;-73
2022/09/06 14:34:07;;;;;;;;;5.00;5.00;;;;;;;;4995578;27;45315;-73
2022/09/06 14:36:33;;;;;;;;;3.75;3.50;;;;;;;;4984850;28;45331;-73
2022/09/06 14:38:58;;;;;;;;;4.25;3.75;;;;;;;;4992237;28;45692;-74
2022/09/06 14:41:24;;;;;;;;;3.00;3.00;;;;;;;;4991750;27;45223;-73
2022/09/06 14:43:50;;;;;;;;;3.50;3.50;;;;;;;;4991898;28;46246;-73